sensor_id;sensor_type;location;lat;lon;timestamp;P1;durP1;ratioP1;P2;durP2;ratioP2
10847;SDS011;5477;48.806;9.154;2023-02-15T00:02:03;23.30;;;15.00;;
10847;SDS011;5477;48.806;9.154;2023-02-15T00:04:31;23.40;;;14.97;;
10847;SDS011;5477;48.806;9.154;2023-02-15T00:07:15;23.50;;;14.47;;
10847;SDS011;5477;48.806;9.154;2023-02-15T00:09:45;25.03;;;15.23;;
10847;SDS011;5477;48.806;9.154;2023-02-15T00:12:14;22.90;;;14.93;;
10847;SDS011;5477;48.806;9.154;2023-02-15T00:14:42;24.43;;;15.07;;
10847;SDS011;5477;48.806;9.154;2023-02-15T00:17:10;23.70;;;14.90;;
10847;SDS011;5477;48.806;9.154;2023-02-15T00:19:38;26.07;;;16.00;;
10847;SDS011;5477;48.806;9.154;2023-02-15T00:22:07;25.90;;;15.73;;
10847;SDS011;5477;48.806;9.154;2023-02-15T00:24:36;23.60;;;14.90;;
10847;SDS011;5477;48.806;9.154;2023-02-15T00:27:04;25.90;;;15.40;;
10847;SDS011;5477;48.806;9.154;2023-02-15T00:29:32;26.63;;;15.17;;
10847;SDS011;5477;48.806;9.154;2023-02-15T00:32:00;22.90;;;14.57;;
10847;SDS011;5477;48.806;9.154;2023-02-15T00:34:28;23.50;;;14.87;;
10847;SDS011;5477;48.806;9.154;2023-02-15T00:36:56;25.57;;;15.27;;
10847;SDS011;5477;48.806;9.154;2023-02-15T00:39:24;24.00;;;14.67;;
10847;SDS011;5477;48.806;9.154;2023-02-15T00:41:54;23.17;;;14.70;;
10847;SDS011;5477;48.806;9.154;2023-02-15T00:44:22;21.50;;;13.90;;
10847;SDS011;5477;48.806;9.154;2023-02-15T00:46:50;22.93;;;14.23;;
10847;SDS011;5477;48.806;9.154;2023-02-15T00:49:19;21.27;;;14.10;;
10847;SDS011;5477;48.806;9.154;2023-02-15T00:51:47;22.77;;;15.17;;
10847;SDS011;5477;48.806;9.154;2023-02-15T00:54:15;24.27;;;14.67;;
10847;SDS011;5477;48.806;9.154;2023-02-15T00:56:43;21.73;;;14.07;;
10847;SDS011;5477;48.806;9.154;2023-02-15T00:59:12;25.97;;;14.40;;
10847;SDS011;5477;48.806;9.154;2023-02-15T01:01:40;23.77;;;15.23;;
10847;SDS011;5477;48.806;9.154;2023-02-15T01:04:08;24.40;;;14.63;;
10847;SDS011;5477;48.806;9.154;2023-02-15T01:06:36;23.80;;;14.90;;
10847;SDS011;5477;48.806;9.154;2023-02-15T01:09:04;23.93;;;14.57;;
10847;SDS011;5477;48.806;9.154;2023-02-15T01:11:32;24.30;;;14.87;;
10847;SDS011;5477;48.806;9.154;2023-02-15T01:14:00;24.60;;;15.00;;
10847;SDS011;5477;48.806;9.154;2023-02-15T01:16:32;25.83;;;15.20;;
10847;SDS011;5477;48.806;9.154;2023-02-15T01:19:00;25.77;;;14.90;;
10847;SDS011;5477;48.806;9.154;2023-02-15T01:21:30;21.53;;;14.60;;
10847;SDS011;5477;48.806;9.154;2023-02-15T01:24:01;23.67;;;14.50;;
10847;SDS011;5477;48.806;9.154;2023-02-15T01:26:29;24.27;;;14.37;;
10847;SDS011;5477;48.806;9.154;2023-02-15T01:28:57;23.30;;;15.43;;
10847;SDS011;5477;48.806;9.154;2023-02-15T01:31:25;23.10;;;14.87;;
10847;SDS011;5477;48.806;9.154;2023-02-15T01:33:55;23.57;;;14.70;;
10847;SDS011;5477;48.806;9.154;2023-02-15T01:36:22;25.30;;;15.20;;
10847;SDS011;5477;48.806;9.154;2023-02-15T01:38:51;25.83;;;14.70;;
10847;SDS011;5477;48.806;9.154;2023-02-15T01:41:18;21.40;;;13.97;;
10847;SDS011;5477;48.806;9.154;2023-02-15T01:43:54;25.10;;;15.03;;
10847;SDS011;5477;48.806;9.154;2023-02-15T01:46:27;22.53;;;15.00;;
10847;SDS011;5477;48.806;9.154;2023-02-15T01:49:03;22.57;;;14.10;;
10847;SDS011;5477;48.806;9.154;2023-02-15T01:51:37;28.33;;;14.93;;
10847;SDS011;5477;48.806;9.154;2023-02-15T01:54:09;23.07;;;14.30;;
10847;SDS011;5477;48.806;9.154;2023-02-15T01:56:42;20.10;;;13.67;;
10847;SDS011;5477;48.806;9.154;2023-02-15T01:59:11;22.70;;;15.03;;
10847;SDS011;5477;48.806;9.154;2023-02-15T02:01:43;26.53;;;15.33;;
10847;SDS011;5477;48.806;9.154;2023-02-15T02:04:15;20.87;;;13.67;;
10847;SDS011;5477;48.806;9.154;2023-02-15T02:06:46;19.77;;;13.83;;
10847;SDS011;5477;48.806;9.154;2023-02-15T02:09:16;20.93;;;13.93;;
10847;SDS011;5477;48.806;9.154;2023-02-15T02:11:44;21.43;;;13.37;;
10847;SDS011;5477;48.806;9.154;2023-02-15T02:14:14;20.83;;;13.90;;
10847;SDS011;5477;48.806;9.154;2023-02-15T02:16:44;21.40;;;14.03;;
10847;SDS011;5477;48.806;9.154;2023-02-15T02:19:31;21.67;;;13.90;;
10847;SDS011;5477;48.806;9.154;2023-02-15T02:25:40;23.43;;;14.27;;
10847;SDS011;5477;48.806;9.154;2023-02-15T02:28:35;20.83;;;13.83;;
10847;SDS011;5477;48.806;9.154;2023-02-15T02:31:28;19.47;;;13.47;;
10847;SDS011;5477;48.806;9.154;2023-02-15T02:34:13;21.27;;;13.80;;
10847;SDS011;5477;48.806;9.154;2023-02-15T02:36:48;20.07;;;13.50;;
10847;SDS011;5477;48.806;9.154;2023-02-15T02:39:22;20.10;;;13.70;;
10847;SDS011;5477;48.806;9.154;2023-02-15T02:41:57;20.87;;;13.43;;
10847;SDS011;5477;48.806;9.154;2023-02-15T02:44:30;21.63;;;13.37;;
10847;SDS011;5477;48.806;9.154;2023-02-15T02:47:10;22.50;;;13.97;;
10847;SDS011;5477;48.806;9.154;2023-02-15T02:49:44;20.87;;;13.63;;
10847;SDS011;5477;48.806;9.154;2023-02-15T02:55:10;21.80;;;13.93;;
10847;SDS011;5477;48.806;9.154;2023-02-15T02:57:45;22.40;;;13.73;;
10847;SDS011;5477;48.806;9.154;2023-02-15T03:00:18;21.73;;;13.80;;
10847;SDS011;5477;48.806;9.154;2023-02-15T03:02:49;21.30;;;13.80;;
10847;SDS011;5477;48.806;9.154;2023-02-15T03:05:22;20.83;;;13.23;;
10847;SDS011;5477;48.806;9.154;2023-02-15T03:07:53;22.33;;;14.00;;
10847;SDS011;5477;48.806;9.154;2023-02-15T03:10:24;23.67;;;13.53;;
10847;SDS011;5477;48.806;9.154;2023-02-15T03:12:53;21.40;;;13.83;;
10847;SDS011;5477;48.806;9.154;2023-02-15T03:15:22;24.10;;;14.47;;
10847;SDS011;5477;48.806;9.154;2023-02-15T03:17:54;23.67;;;14.97;;
10847;SDS011;5477;48.806;9.154;2023-02-15T03:20:27;24.53;;;14.83;;
10847;SDS011;5477;48.806;9.154;2023-02-15T03:23:01;29.40;;;16.53;;
10847;SDS011;5477;48.806;9.154;2023-02-15T03:25:32;23.77;;;13.73;;
10847;SDS011;5477;48.806;9.154;2023-02-15T03:28:05;25.47;;;14.47;;
10847;SDS011;5477;48.806;9.154;2023-02-15T03:30:36;28.10;;;16.17;;
10847;SDS011;5477;48.806;9.154;2023-02-15T03:33:06;23.57;;;14.13;;
10847;SDS011;5477;48.806;9.154;2023-02-15T03:35:39;22.13;;;14.37;;
10847;SDS011;5477;48.806;9.154;2023-02-15T03:38:13;18.37;;;12.87;;
10847;SDS011;5477;48.806;9.154;2023-02-15T03:40:47;20.83;;;12.93;;
10847;SDS011;5477;48.806;9.154;2023-02-15T03:43:36;23.60;;;13.27;;
10847;SDS011;5477;48.806;9.154;2023-02-15T03:46:11;18.97;;;12.33;;
10847;SDS011;5477;48.806;9.154;2023-02-15T03:48:43;19.77;;;12.23;;
10847;SDS011;5477;48.806;9.154;2023-02-15T03:51:17;20.43;;;12.80;;
10847;SDS011;5477;48.806;9.154;2023-02-15T03:54:05;19.93;;;13.27;;
10847;SDS011;5477;48.806;9.154;2023-02-15T03:56:36;19.13;;;12.03;;
10847;SDS011;5477;48.806;9.154;2023-02-15T03:59:06;26.57;;;15.07;;
10847;SDS011;5477;48.806;9.154;2023-02-15T04:01:54;25.93;;;16.67;;
10847;SDS011;5477;48.806;9.154;2023-02-15T04:04:33;29.13;;;16.33;;
10847;SDS011;5477;48.806;9.154;2023-02-15T04:07:05;23.17;;;14.57;;
10847;SDS011;5477;48.806;9.154;2023-02-15T04:09:34;23.40;;;13.77;;
10847;SDS011;5477;48.806;9.154;2023-02-15T04:12:20;30.40;;;15.40;;
10847;SDS011;5477;48.806;9.154;2023-02-15T04:14:48;29.57;;;15.93;;
10847;SDS011;5477;48.806;9.154;2023-02-15T04:17:35;26.00;;;15.87;;
10847;SDS011;5477;48.806;9.154;2023-02-15T04:20:03;26.10;;;15.67;;
10847;SDS011;5477;48.806;9.154;2023-02-15T04:22:51;30.53;;;16.87;;
10847;SDS011;5477;48.806;9.154;2023-02-15T04:25:36;40.93;;;16.93;;
10847;SDS011;5477;48.806;9.154;2023-02-15T04:28:04;27.60;;;16.50;;
10847;SDS011;5477;48.806;9.154;2023-02-15T04:30:33;35.67;;;17.57;;
10847;SDS011;5477;48.806;9.154;2023-02-15T04:33:02;33.63;;;18.57;;
10847;SDS011;5477;48.806;9.154;2023-02-15T04:35:29;34.07;;;16.87;;
10847;SDS011;5477;48.806;9.154;2023-02-15T04:37:59;35.53;;;17.33;;
10847;SDS011;5477;48.806;9.154;2023-02-15T04:40:27;39.20;;;17.83;;
10847;SDS011;5477;48.806;9.154;2023-02-15T04:42:55;49.60;;;18.93;;
10847;SDS011;5477;48.806;9.154;2023-02-15T04:45:26;35.67;;;16.50;;
10847;SDS011;5477;48.806;9.154;2023-02-15T04:47:54;32.90;;;15.67;;
10847;SDS011;5477;48.806;9.154;2023-02-15T04:50:22;41.67;;;15.93;;
10847;SDS011;5477;48.806;9.154;2023-02-15T04:52:50;45.90;;;17.37;;
10847;SDS011;5477;48.806;9.154;2023-02-15T04:55:20;63.37;;;17.57;;
10847;SDS011;5477;48.806;9.154;2023-02-15T04:57:48;34.87;;;16.77;;
10847;SDS011;5477;48.806;9.154;2023-02-15T05:00:16;51.33;;;16.47;;
10847;SDS011;5477;48.806;9.154;2023-02-15T05:02:49;54.27;;;16.73;;
10847;SDS011;5477;48.806;9.154;2023-02-15T05:05:17;39.33;;;16.70;;
10847;SDS011;5477;48.806;9.154;2023-02-15T05:07:45;56.57;;;16.93;;
10847;SDS011;5477;48.806;9.154;2023-02-15T05:10:13;36.33;;;16.97;;
10847;SDS011;5477;48.806;9.154;2023-02-15T05:12:43;33.93;;;16.90;;
10847;SDS011;5477;48.806;9.154;2023-02-15T05:15:11;28.30;;;16.57;;
10847;SDS011;5477;48.806;9.154;2023-02-15T05:17:39;33.10;;;16.87;;
10847;SDS011;5477;48.806;9.154;2023-02-15T05:20:07;23.33;;;15.23;;
10847;SDS011;5477;48.806;9.154;2023-02-15T05:22:36;31.13;;;17.10;;
10847;SDS011;5477;48.806;9.154;2023-02-15T05:25:04;30.93;;;16.87;;
10847;SDS011;5477;48.806;9.154;2023-02-15T05:27:50;27.17;;;16.20;;
10847;SDS011;5477;48.806;9.154;2023-02-15T05:30:36;26.57;;;14.80;;
10847;SDS011;5477;48.806;9.154;2023-02-15T05:33:06;23.27;;;14.27;;
10847;SDS011;5477;48.806;9.154;2023-02-15T05:35:34;25.77;;;15.97;;
10847;SDS011;5477;48.806;9.154;2023-02-15T05:38:02;28.57;;;15.97;;
10847;SDS011;5477;48.806;9.154;2023-02-15T05:40:30;28.43;;;15.87;;
10847;SDS011;5477;48.806;9.154;2023-02-15T05:42:59;28.47;;;15.13;;
10847;SDS011;5477;48.806;9.154;2023-02-15T05:45:27;28.70;;;15.60;;
10847;SDS011;5477;48.806;9.154;2023-02-15T05:47:55;27.83;;;15.70;;
10847;SDS011;5477;48.806;9.154;2023-02-15T05:50:24;28.33;;;15.53;;
10847;SDS011;5477;48.806;9.154;2023-02-15T05:52:52;27.57;;;16.23;;
10847;SDS011;5477;48.806;9.154;2023-02-15T05:55:20;31.60;;;16.47;;
10847;SDS011;5477;48.806;9.154;2023-02-15T05:57:48;30.83;;;16.00;;
10847;SDS011;5477;48.806;9.154;2023-02-15T06:00:18;30.20;;;16.17;;
10847;SDS011;5477;48.806;9.154;2023-02-15T06:02:46;35.13;;;15.73;;
10847;SDS011;5477;48.806;9.154;2023-02-15T06:05:14;43.87;;;16.53;;
10847;SDS011;5477;48.806;9.154;2023-02-15T06:07:42;30.53;;;17.03;;
10847;SDS011;5477;48.806;9.154;2023-02-15T06:10:11;34.63;;;17.00;;
10847;SDS011;5477;48.806;9.154;2023-02-15T06:12:39;66.37;;;17.73;;
10847;SDS011;5477;48.806;9.154;2023-02-15T06:15:07;49.27;;;17.97;;
10847;SDS011;5477;48.806;9.154;2023-02-15T06:17:37;36.73;;;16.77;;
10847;SDS011;5477;48.806;9.154;2023-02-15T06:20:05;52.50;;;17.60;;
10847;SDS011;5477;48.806;9.154;2023-02-15T06:22:34;44.83;;;17.13;;
10847;SDS011;5477;48.806;9.154;2023-02-15T06:25:02;49.43;;;17.00;;
10847;SDS011;5477;48.806;9.154;2023-02-15T06:27:32;45.07;;;16.83;;
10847;SDS011;5477;48.806;9.154;2023-02-15T06:30:00;37.77;;;16.60;;
10847;SDS011;5477;48.806;9.154;2023-02-15T06:32:28;32.83;;;16.67;;
10847;SDS011;5477;48.806;9.154;2023-02-15T06:34:57;29.63;;;16.10;;
10847;SDS011;5477;48.806;9.154;2023-02-15T06:37:25;30.07;;;16.17;;
10847;SDS011;5477;48.806;9.154;2023-02-15T06:39:53;36.17;;;16.67;;
10847;SDS011;5477;48.806;9.154;2023-02-15T06:42:21;36.50;;;16.80;;
10847;SDS011;5477;48.806;9.154;2023-02-15T06:44:49;37.23;;;16.93;;
10847;SDS011;5477;48.806;9.154;2023-02-15T06:47:17;55.23;;;17.73;;
10847;SDS011;5477;48.806;9.154;2023-02-15T06:49:45;37.53;;;16.73;;
10847;SDS011;5477;48.806;9.154;2023-02-15T06:52:14;34.93;;;16.63;;
10847;SDS011;5477;48.806;9.154;2023-02-15T06:54:42;45.30;;;17.93;;
10847;SDS011;5477;48.806;9.154;2023-02-15T06:57:10;41.73;;;16.90;;
10847;SDS011;5477;48.806;9.154;2023-02-15T06:59:38;33.40;;;16.33;;
10847;SDS011;5477;48.806;9.154;2023-02-15T07:02:07;35.93;;;16.80;;
10847;SDS011;5477;48.806;9.154;2023-02-15T07:04:36;29.33;;;16.40;;
10847;SDS011;5477;48.806;9.154;2023-02-15T07:07:04;29.87;;;15.40;;
10847;SDS011;5477;48.806;9.154;2023-02-15T07:09:36;27.00;;;16.47;;
10847;SDS011;5477;48.806;9.154;2023-02-15T07:12:04;27.20;;;15.53;;
10847;SDS011;5477;48.806;9.154;2023-02-15T07:14:50;25.33;;;15.30;;
10847;SDS011;5477;48.806;9.154;2023-02-15T07:17:18;37.40;;;16.70;;
10847;SDS011;5477;48.806;9.154;2023-02-15T07:20:01;29.33;;;15.77;;
10847;SDS011;5477;48.806;9.154;2023-02-15T07:22:29;37.93;;;16.37;;
10847;SDS011;5477;48.806;9.154;2023-02-15T07:24:59;38.77;;;15.43;;
10847;SDS011;5477;48.806;9.154;2023-02-15T07:27:27;24.70;;;16.00;;
10847;SDS011;5477;48.806;9.154;2023-02-15T07:29:55;37.57;;;16.37;;
10847;SDS011;5477;48.806;9.154;2023-02-15T07:32:23;30.63;;;16.10;;
10847;SDS011;5477;48.806;9.154;2023-02-15T07:34:51;42.83;;;16.40;;
10847;SDS011;5477;48.806;9.154;2023-02-15T07:37:19;27.53;;;15.70;;
10847;SDS011;5477;48.806;9.154;2023-02-15T07:39:46;38.63;;;16.50;;
10847;SDS011;5477;48.806;9.154;2023-02-15T07:42:16;36.23;;;17.23;;
10847;SDS011;5477;48.806;9.154;2023-02-15T07:44:46;33.03;;;16.90;;
10847;SDS011;5477;48.806;9.154;2023-02-15T07:47:13;29.63;;;16.17;;
10847;SDS011;5477;48.806;9.154;2023-02-15T07:49:41;30.50;;;16.83;;
10847;SDS011;5477;48.806;9.154;2023-02-15T07:52:09;34.70;;;17.37;;
10847;SDS011;5477;48.806;9.154;2023-02-15T07:54:37;38.60;;;17.17;;
10847;SDS011;5477;48.806;9.154;2023-02-15T07:57:05;37.83;;;17.57;;
10847;SDS011;5477;48.806;9.154;2023-02-15T07:59:35;27.27;;;15.63;;
10847;SDS011;5477;48.806;9.154;2023-02-15T08:02:02;39.40;;;16.93;;
10847;SDS011;5477;48.806;9.154;2023-02-15T08:04:33;32.77;;;17.03;;
10847;SDS011;5477;48.806;9.154;2023-02-15T08:07:01;35.30;;;16.27;;
10847;SDS011;5477;48.806;9.154;2023-02-15T08:09:30;38.90;;;16.77;;
10847;SDS011;5477;48.806;9.154;2023-02-15T08:11:58;32.27;;;15.13;;
10847;SDS011;5477;48.806;9.154;2023-02-15T08:14:26;62.30;;;16.27;;
10847;SDS011;5477;48.806;9.154;2023-02-15T08:16:58;41.53;;;14.77;;
10847;SDS011;5477;48.806;9.154;2023-02-15T08:19:29;29.57;;;14.27;;
10847;SDS011;5477;48.806;9.154;2023-02-15T08:21:59;22.13;;;13.70;;
10847;SDS011;5477;48.806;9.154;2023-02-15T08:24:29;25.07;;;14.83;;
10847;SDS011;5477;48.806;9.154;2023-02-15T08:26:59;22.77;;;15.10;;
10847;SDS011;5477;48.806;9.154;2023-02-15T08:29:32;23.33;;;14.27;;
10847;SDS011;5477;48.806;9.154;2023-02-15T08:32:03;56.70;;;30.37;;
10847;SDS011;5477;48.806;9.154;2023-02-15T08:34:33;25.97;;;16.60;;
10847;SDS011;5477;48.806;9.154;2023-02-15T08:37:02;23.03;;;15.17;;
10847;SDS011;5477;48.806;9.154;2023-02-15T08:39:32;24.40;;;15.43;;
10847;SDS011;5477;48.806;9.154;2023-02-15T08:42:00;23.20;;;14.77;;
10847;SDS011;5477;48.806;9.154;2023-02-15T08:44:28;24.70;;;14.90;;
10847;SDS011;5477;48.806;9.154;2023-02-15T08:46:56;27.07;;;15.17;;
10847;SDS011;5477;48.806;9.154;2023-02-15T08:49:30;23.53;;;14.73;;
10847;SDS011;5477;48.806;9.154;2023-02-15T08:51:58;25.83;;;15.60;;
10847;SDS011;5477;48.806;9.154;2023-02-15T08:54:26;25.30;;;15.57;;
10847;SDS011;5477;48.806;9.154;2023-02-15T08:57:03;28.00;;;14.90;;
10847;SDS011;5477;48.806;9.154;2023-02-15T08:59:33;26.13;;;15.50;;
10847;SDS011;5477;48.806;9.154;2023-02-15T09:02:01;37.70;;;15.30;;
10847;SDS011;5477;48.806;9.154;2023-02-15T09:04:30;24.13;;;15.00;;
10847;SDS011;5477;48.806;9.154;2023-02-15T09:06:59;24.60;;;16.23;;
10847;SDS011;5477;48.806;9.154;2023-02-15T09:09:28;28.60;;;16.60;;
10847;SDS011;5477;48.806;9.154;2023-02-15T09:11:57;29.80;;;17.63;;
10847;SDS011;5477;48.806;9.154;2023-02-15T09:14:25;27.97;;;16.97;;
10847;SDS011;5477;48.806;9.154;2023-02-15T09:16:54;26.87;;;17.37;;
10847;SDS011;5477;48.806;9.154;2023-02-15T09:19:22;28.40;;;15.90;;
10847;SDS011;5477;48.806;9.154;2023-02-15T09:21:52;29.10;;;16.73;;
10847;SDS011;5477;48.806;9.154;2023-02-15T09:24:20;29.37;;;17.53;;
10847;SDS011;5477;48.806;9.154;2023-02-15T09:26:48;24.03;;;16.13;;
10847;SDS011;5477;48.806;9.154;2023-02-15T09:29:17;23.90;;;15.77;;
10847;SDS011;5477;48.806;9.154;2023-02-15T09:31:46;25.43;;;16.60;;
10847;SDS011;5477;48.806;9.154;2023-02-15T09:34:17;25.20;;;15.73;;
10847;SDS011;5477;48.806;9.154;2023-02-15T09:36:47;29.13;;;18.20;;
10847;SDS011;5477;48.806;9.154;2023-02-15T09:39:18;25.07;;;18.23;;
10847;SDS011;5477;48.806;9.154;2023-02-15T09:44:58;23.73;;;16.27;;
10847;SDS011;5477;48.806;9.154;2023-02-15T09:47:52;28.00;;;18.00;;
10847;SDS011;5477;48.806;9.154;2023-02-15T09:50:33;29.67;;;19.50;;
10847;SDS011;5477;48.806;9.154;2023-02-15T09:53:14;26.97;;;17.83;;
10847;SDS011;5477;48.806;9.154;2023-02-15T09:55:57;32.80;;;18.70;;
10847;SDS011;5477;48.806;9.154;2023-02-15T09:58:35;25.17;;;17.47;;
10847;SDS011;5477;48.806;9.154;2023-02-15T10:01:13;26.63;;;17.53;;
10847;SDS011;5477;48.806;9.154;2023-02-15T10:03:51;24.97;;;17.07;;
10847;SDS011;5477;48.806;9.154;2023-02-15T10:06:34;27.13;;;17.43;;
10847;SDS011;5477;48.806;9.154;2023-02-15T10:09:17;49.40;;;31.37;;
10847;SDS011;5477;48.806;9.154;2023-02-15T10:14:53;30.97;;;19.23;;
10847;SDS011;5477;48.806;9.154;2023-02-15T10:17:43;27.47;;;19.73;;
10847;SDS011;5477;48.806;9.154;2023-02-15T10:20:23;25.57;;;18.63;;
10847;SDS011;5477;48.806;9.154;2023-02-15T10:23:02;31.23;;;19.23;;
10847;SDS011;5477;48.806;9.154;2023-02-15T10:25:42;28.47;;;17.53;;
10847;SDS011;5477;48.806;9.154;2023-02-15T10:28:17;24.50;;;16.73;;
10847;SDS011;5477;48.806;9.154;2023-02-15T10:30:47;26.73;;;18.80;;
10847;SDS011;5477;48.806;9.154;2023-02-15T10:33:24;23.43;;;15.87;;
10847;SDS011;5477;48.806;9.154;2023-02-15T10:36:05;24.33;;;16.27;;
10847;SDS011;5477;48.806;9.154;2023-02-15T10:38:44;25.43;;;16.80;;
10847;SDS011;5477;48.806;9.154;2023-02-15T10:41:20;21.80;;;16.13;;
10847;SDS011;5477;48.806;9.154;2023-02-15T10:44:08;21.77;;;15.33;;
10847;SDS011;5477;48.806;9.154;2023-02-15T10:46:57;23.73;;;16.17;;
10847;SDS011;5477;48.806;9.154;2023-02-15T10:50:00;21.63;;;16.00;;
10847;SDS011;5477;48.806;9.154;2023-02-15T10:52:42;23.63;;;16.17;;
10847;SDS011;5477;48.806;9.154;2023-02-15T10:55:24;22.93;;;16.33;;
10847;SDS011;5477;48.806;9.154;2023-02-15T10:58:03;23.83;;;15.90;;
10847;SDS011;5477;48.806;9.154;2023-02-15T11:00:41;19.93;;;14.67;;
10847;SDS011;5477;48.806;9.154;2023-02-15T11:06:03;27.80;;;17.67;;
10847;SDS011;5477;48.806;9.154;2023-02-15T11:08:37;25.20;;;17.17;;
10847;SDS011;5477;48.806;9.154;2023-02-15T11:11:10;24.57;;;16.57;;
10847;SDS011;5477;48.806;9.154;2023-02-15T11:13:44;22.23;;;15.53;;
10847;SDS011;5477;48.806;9.154;2023-02-15T11:16:16;24.57;;;16.47;;
10847;SDS011;5477;48.806;9.154;2023-02-15T11:18:49;21.87;;;15.97;;
10847;SDS011;5477;48.806;9.154;2023-02-15T11:21:22;24.43;;;16.80;;
10847;SDS011;5477;48.806;9.154;2023-02-15T11:23:54;22.27;;;16.37;;
10847;SDS011;5477;48.806;9.154;2023-02-15T11:26:24;22.87;;;17.33;;
10847;SDS011;5477;48.806;9.154;2023-02-15T11:28:59;26.30;;;16.17;;
10847;SDS011;5477;48.806;9.154;2023-02-15T11:31:37;28.73;;;17.93;;
10847;SDS011;5477;48.806;9.154;2023-02-15T11:34:12;23.47;;;16.87;;
10847;SDS011;5477;48.806;9.154;2023-02-15T11:36:45;24.33;;;17.17;;
10847;SDS011;5477;48.806;9.154;2023-02-15T11:39:15;26.63;;;19.37;;
10847;SDS011;5477;48.806;9.154;2023-02-15T11:41:46;23.40;;;18.43;;
10847;SDS011;5477;48.806;9.154;2023-02-15T11:44:20;29.60;;;18.83;;
10847;SDS011;5477;48.806;9.154;2023-02-15T11:46:52;28.47;;;18.67;;
10847;SDS011;5477;48.806;9.154;2023-02-15T11:49:21;22.07;;;17.00;;
10847;SDS011;5477;48.806;9.154;2023-02-15T11:51:51;26.37;;;19.47;;
10847;SDS011;5477;48.806;9.154;2023-02-15T11:54:21;24.00;;;19.00;;
10847;SDS011;5477;48.806;9.154;2023-02-15T11:56:55;26.80;;;19.53;;
10847;SDS011;5477;48.806;9.154;2023-02-15T11:59:27;24.47;;;18.23;;
10847;SDS011;5477;48.806;9.154;2023-02-15T12:02:00;29.37;;;19.30;;
10847;SDS011;5477;48.806;9.154;2023-02-15T12:04:29;28.33;;;20.20;;
10847;SDS011;5477;48.806;9.154;2023-02-15T12:07:01;26.47;;;19.73;;
10847;SDS011;5477;48.806;9.154;2023-02-15T12:09:38;23.70;;;19.10;;
10847;SDS011;5477;48.806;9.154;2023-02-15T12:12:20;27.90;;;18.90;;
10847;SDS011;5477;48.806;9.154;2023-02-15T12:14:52;24.67;;;19.27;;
10847;SDS011;5477;48.806;9.154;2023-02-15T12:17:23;25.17;;;18.90;;
10847;SDS011;5477;48.806;9.154;2023-02-15T12:19:54;24.73;;;18.13;;
10847;SDS011;5477;48.806;9.154;2023-02-15T12:22:24;24.63;;;18.40;;
10847;SDS011;5477;48.806;9.154;2023-02-15T12:24:55;23.63;;;17.93;;
10847;SDS011;5477;48.806;9.154;2023-02-15T12:27:26;30.60;;;20.70;;
10847;SDS011;5477;48.806;9.154;2023-02-15T12:29:56;24.57;;;17.70;;
10847;SDS011;5477;48.806;9.154;2023-02-15T12:32:31;27.47;;;18.70;;
10847;SDS011;5477;48.806;9.154;2023-02-15T12:35:06;25.90;;;18.73;;
10847;SDS011;5477;48.806;9.154;2023-02-15T12:37:36;23.90;;;17.73;;
10847;SDS011;5477;48.806;9.154;2023-02-15T12:40:18;24.50;;;18.90;;
10847;SDS011;5477;48.806;9.154;2023-02-15T12:42:47;24.03;;;18.63;;
10847;SDS011;5477;48.806;9.154;2023-02-15T12:45:23;26.77;;;18.67;;
10847;SDS011;5477;48.806;9.154;2023-02-15T12:48:12;23.30;;;17.73;;
10847;SDS011;5477;48.806;9.154;2023-02-15T12:50:43;27.27;;;18.40;;
10847;SDS011;5477;48.806;9.154;2023-02-15T12:53:21;24.23;;;18.63;;
10847;SDS011;5477;48.806;9.154;2023-02-15T12:55:57;25.53;;;18.30;;
10847;SDS011;5477;48.806;9.154;2023-02-15T12:58:27;24.60;;;18.77;;
10847;SDS011;5477;48.806;9.154;2023-02-15T13:01:03;24.03;;;19.37;;
10847;SDS011;5477;48.806;9.154;2023-02-15T13:03:49;24.57;;;19.33;;
10847;SDS011;5477;48.806;9.154;2023-02-15T13:06:22;26.27;;;19.37;;
10847;SDS011;5477;48.806;9.154;2023-02-15T13:08:51;24.37;;;18.77;;
10847;SDS011;5477;48.806;9.154;2023-02-15T13:11:22;24.83;;;18.60;;
10847;SDS011;5477;48.806;9.154;2023-02-15T13:13:57;26.83;;;20.07;;
10847;SDS011;5477;48.806;9.154;2023-02-15T13:16:29;27.97;;;19.67;;
10847;SDS011;5477;48.806;9.154;2023-02-15T13:19:03;26.20;;;18.63;;
10847;SDS011;5477;48.806;9.154;2023-02-15T13:21:35;27.13;;;19.30;;
10847;SDS011;5477;48.806;9.154;2023-02-15T13:24:10;36.83;;;21.67;;
10847;SDS011;5477;48.806;9.154;2023-02-15T13:26:45;29.83;;;19.77;;
10847;SDS011;5477;48.806;9.154;2023-02-15T13:29:17;25.37;;;18.77;;
10847;SDS011;5477;48.806;9.154;2023-02-15T13:31:49;32.43;;;20.33;;
10847;SDS011;5477;48.806;9.154;2023-02-15T13:34:20;30.77;;;19.70;;
10847;SDS011;5477;48.806;9.154;2023-02-15T13:36:54;30.47;;;19.63;;
10847;SDS011;5477;48.806;9.154;2023-02-15T13:39:29;24.60;;;18.20;;
10847;SDS011;5477;48.806;9.154;2023-02-15T13:42:03;28.07;;;19.37;;
10847;SDS011;5477;48.806;9.154;2023-02-15T13:44:48;25.53;;;18.97;;
10847;SDS011;5477;48.806;9.154;2023-02-15T13:47:29;26.40;;;20.17;;
10847;SDS011;5477;48.806;9.154;2023-02-15T13:50:07;30.10;;;19.97;;
10847;SDS011;5477;48.806;9.154;2023-02-15T13:52:46;26.77;;;19.20;;
10847;SDS011;5477;48.806;9.154;2023-02-15T13:55:23;28.07;;;19.27;;
10847;SDS011;5477;48.806;9.154;2023-02-15T14:01:01;31.50;;;19.50;;
10847;SDS011;5477;48.806;9.154;2023-02-15T14:06:56;29.23;;;19.60;;
10847;SDS011;5477;48.806;9.154;2023-02-15T14:09:40;29.70;;;19.27;;
10847;SDS011;5477;48.806;9.154;2023-02-15T14:12:25;32.70;;;21.17;;
10847;SDS011;5477;48.806;9.154;2023-02-15T14:17:55;27.03;;;18.90;;
10847;SDS011;5477;48.806;9.154;2023-02-15T14:20:34;25.83;;;19.00;;
10847;SDS011;5477;48.806;9.154;2023-02-15T14:23:15;28.87;;;18.43;;
10847;SDS011;5477;48.806;9.154;2023-02-15T14:25:54;26.93;;;18.17;;
10847;SDS011;5477;48.806;9.154;2023-02-15T14:28:27;29.17;;;18.23;;
10847;SDS011;5477;48.806;9.154;2023-02-15T14:31:01;25.43;;;18.77;;
10847;SDS011;5477;48.806;9.154;2023-02-15T14:33:33;26.47;;;17.77;;
10847;SDS011;5477;48.806;9.154;2023-02-15T14:36:06;25.67;;;19.53;;
10847;SDS011;5477;48.806;9.154;2023-02-15T14:38:42;27.87;;;17.60;;
10847;SDS011;5477;48.806;9.154;2023-02-15T14:41:19;28.83;;;17.73;;
10847;SDS011;5477;48.806;9.154;2023-02-15T14:43:51;30.40;;;18.40;;
10847;SDS011;5477;48.806;9.154;2023-02-15T14:46:25;44.63;;;33.07;;
10847;SDS011;5477;48.806;9.154;2023-02-15T14:49:03;28.50;;;20.73;;
10847;SDS011;5477;48.806;9.154;2023-02-15T14:51:53;27.67;;;18.10;;
10847;SDS011;5477;48.806;9.154;2023-02-15T14:57:26;23.10;;;17.00;;
10847;SDS011;5477;48.806;9.154;2023-02-15T15:03:09;24.43;;;16.63;;
10847;SDS011;5477;48.806;9.154;2023-02-15T15:05:50;25.60;;;17.70;;
10847;SDS011;5477;48.806;9.154;2023-02-15T15:08:21;27.77;;;16.67;;
10847;SDS011;5477;48.806;9.154;2023-02-15T15:10:55;26.23;;;15.97;;
10847;SDS011;5477;48.806;9.154;2023-02-15T15:13:37;26.37;;;16.30;;
10847;SDS011;5477;48.806;9.154;2023-02-15T15:18:56;19.90;;;14.93;;
10847;SDS011;5477;48.806;9.154;2023-02-15T15:36:41;21.00;;;15.93;;
10847;SDS011;5477;48.806;9.154;2023-02-15T15:39:32;25.30;;;15.23;;
10847;SDS011;5477;48.806;9.154;2023-02-15T15:42:28;19.13;;;14.77;;
10847;SDS011;5477;48.806;9.154;2023-02-15T15:45:11;22.50;;;14.47;;
10847;SDS011;5477;48.806;9.154;2023-02-15T15:47:56;23.20;;;15.27;;
10847;SDS011;5477;48.806;9.154;2023-02-15T15:50:33;23.70;;;15.33;;
10847;SDS011;5477;48.806;9.154;2023-02-15T15:53:05;25.93;;;14.97;;
10847;SDS011;5477;48.806;9.154;2023-02-15T15:55:42;24.80;;;16.10;;